Beulah, New Mexico
Current Conditions -  °F | °C
As of 8:53 PM on Wednesday 26 Nov 2014 (Local Time) from KLVS Reporting Station
Clear Clear  
Wind Chill:   Ceiling: Unl
Heat Index:   Visibility: 10mi
Dew Point: -6°   Wind: 7mph
Humidity: 52%   Direction: 330°NNW
Pressure: 30.36"   Gusts: NA
Location:  35.7797°N, 105.164°W
Report Text: KLVS 270353Z AUTO 33006KT 10SM CLR 03/M06 A3036 RMK AO2 SLP251 T00281061
Loading
Personal Weather Stations






























Interactive Weather Map New forecast layout! Learn more

10-Day Weather Forecast

Advertisements
Track Severe Weather on mobile